Time;durP1;ratioP1;P1;durP2;ratioP2;P2;SDS_P1;SDS_P2;PMS_P1;PMS_P2;Temp;Humidity;BMP_temperature;BMP_pressure;BME280_temperature;BME280_humidity;BME280_pressure;Samples;Min_cycle;Max_cycle;Signal;HPM_P1;HPM_P2
2023/06/01 00:01:08;;;;;;;6.90;4.07;;;;;;;;;;5069504;28;20017;-76
2023/06/01 00:03:33;;;;;;;6.90;3.97;;;;;;;;;;5069046;28;20063;-76
2023/06/01 00:06:00;;;;;;;10.02;3.70;;;;;;;;;;5069376;28;20519;-76
2023/06/01 00:08:25;;;;;;;5.97;3.97;;;;;;;;;;5068623;28;20070;-76
2023/06/01 00:10:51;;;;;;;7.15;4.07;;;;;;;;;;5069200;28;20046;-76
2023/06/01 00:13:16;;;;;;;6.88;3.90;;;;;;;;;;5068510;28;20056;-76
2023/06/01 00:15:43;;;;;;;9.00;4.32;;;;;;;;;;5069005;28;20069;-76
2023/06/01 00:18:12;;;;;;;7.75;4.00;;;;;;;;;;5068991;28;20047;-76
2023/06/01 00:20:38;;;;;;;7.22;4.03;;;;;;;;;;5068708;28;20075;-76
2023/06/01 00:23:04;;;;;;;7.30;4.20;;;;;;;;;;5067034;28;20028;-76
2023/06/01 00:25:29;;;;;;;7.45;4.00;;;;;;;;;;5069217;28;20032;-76
2023/06/01 00:27:55;;;;;;;7.93;4.13;;;;;;;;;;5068795;28;20528;-76
2023/06/01 00:30:21;;;;;;;8.55;4.13;;;;;;;;;;5068870;28;20028;-76
2023/06/01 00:32:46;;;;;;;8.30;4.28;;;;;;;;;;5068483;28;20028;-76
2023/06/01 00:35:11;;;;;;;7.25;4.00;;;;;;;;;;5068785;28;20043;-76
2023/06/01 00:37:37;;;;;;;6.88;4.20;;;;;;;;;;5068199;28;20111;-76
2023/06/01 00:40:03;;;;;;;13.05;4.22;;;;;;;;;;5068866;28;20027;-76
2023/06/01 00:42:28;;;;;;;6.93;4.40;;;;;;;;;;5068641;28;20017;-76
2023/06/01 00:44:54;;;;;;;8.07;4.40;;;;;;;;;;5068862;28;20024;-76
2023/06/01 00:47:20;;;;;;;7.30;4.05;;;;;;;;;;5068813;28;20062;-76
2023/06/01 00:49:46;;;;;;;6.35;4.07;;;;;;;;;;5068552;28;20020;-76
2023/06/01 00:52:12;;;;;;;6.88;3.88;;;;;;;;;;5068274;28;20486;-76
2023/06/01 00:54:38;;;;;;;12.20;4.43;;;;;;;;;;5067027;28;20122;-76
2023/06/01 00:57:03;;;;;;;7.00;4.55;;;;;;;;;;5068889;28;20610;-75
2023/06/01 00:59:29;;;;;;;7.78;4.38;;;;;;;;;;5068763;28;20028;-76
2023/06/01 01:01:54;;;;;;;7.45;4.50;;;;;;;;;;5068780;28;20100;-76
2023/06/01 01:04:25;;;;;;;7.30;4.43;;;;;;;;;;5068299;28;20067;-76
2023/06/01 01:07:20;;;;;;;7.60;4.50;;;;;;;;;;5068395;28;20596;-76
2023/06/01 01:10:33;;;;;;;8.40;4.90;;;;;;;;;;5068382;28;20029;-76
2023/06/01 01:13:10;;;;;;;7.68;4.10;;;;;;;;;;5051188;28;20032;-76
2023/06/01 01:15:43;;;;;;;7.03;3.85;;;;;;;;;;5068598;28;20020;-76
2023/06/01 01:18:17;;;;;;;8.93;4.20;;;;;;;;;;5068483;28;20089;-76
2023/06/01 01:20:44;;;;;;;14.60;4.35;;;;;;;;;;5068696;28;20033;-76
2023/06/01 01:23:54;;;;;;;6.55;4.43;;;;;;;;;;5067774;28;20075;-76
2023/06/01 01:26:22;;;;;;;13.07;4.60;;;;;;;;;;5068457;28;20030;-76
2023/06/01 01:28:58;;;;;;;10.48;4.40;;;;;;;;;;5068159;28;20044;-76
2023/06/01 01:31:24;;;;;;;6.05;4.10;;;;;;;;;;5068463;28;20025;-76
2023/06/01 01:33:52;;;;;;;11.55;4.47;;;;;;;;;;5070708;28;20467;-76
2023/06/01 01:36:18;;;;;;;9.98;4.28;;;;;;;;;;5071890;28;20579;-76
2023/06/01 01:38:44;;;;;;;9.90;4.10;;;;;;;;;;5071880;28;20072;-76
2023/06/01 01:41:10;;;;;;;7.78;4.00;;;;;;;;;;5071984;28;20082;-76
2023/06/01 01:43:36;;;;;;;7.70;3.78;;;;;;;;;;5071655;28;20029;-76
2023/06/01 01:46:16;;;;;;;9.65;4.28;;;;;;;;;;5071877;28;20027;-77
2023/06/01 01:48:52;;;;;;;8.07;4.00;;;;;;;;;;5071713;28;20155;-76
2023/06/01 01:51:24;;;;;;;10.60;4.30;;;;;;;;;;5071407;28;20125;-76
2023/06/01 01:53:52;;;;;;;9.15;4.00;;;;;;;;;;5071431;28;20520;-76
2023/06/01 01:56:18;;;;;;;7.45;4.40;;;;;;;;;;5071582;28;20438;-76
2023/06/01 01:58:47;;;;;;;7.82;4.18;;;;;;;;;;5072026;28;20025;-76
2023/06/01 02:01:12;;;;;;;8.02;4.03;;;;;;;;;;5071665;28;20020;-75
2023/06/01 02:03:38;;;;;;;8.68;4.03;;;;;;;;;;5071327;28;20027;-76
2023/06/01 02:06:03;;;;;;;12.70;4.60;;;;;;;;;;5071377;28;20056;-76
2023/06/01 02:08:28;;;;;;;8.65;4.00;;;;;;;;;;5071184;28;20028;-76
2023/06/01 02:10:54;;;;;;;6.88;3.90;;;;;;;;;;5071376;28;20025;-76
2023/06/01 02:13:19;;;;;;;6.32;3.97;;;;;;;;;;5071408;28;20020;-75
2023/06/01 02:15:45;;;;;;;8.02;4.45;;;;;;;;;;5071360;28;20029;-76
2023/06/01 02:18:11;;;;;;;8.45;3.80;;;;;;;;;;5071362;28;20501;-76
2023/06/01 02:20:36;;;;;;;10.10;3.88;;;;;;;;;;5070959;28;20458;-76
2023/06/01 02:23:02;;;;;;;8.05;4.05;;;;;;;;;;5070755;28;20488;-76
2023/06/01 02:25:27;;;;;;;10.27;4.00;;;;;;;;;;5070808;28;20028;-76
2023/06/01 02:27:52;;;;;;;8.30;4.18;;;;;;;;;;5071123;28;20032;-76
2023/06/01 02:30:18;;;;;;;6.90;4.15;;;;;;;;;;5070974;28;20020;-76
2023/06/01 02:32:48;;;;;;;12.13;4.57;;;;;;;;;;5071140;28;20579;-76
2023/06/01 02:35:14;;;;;;;7.43;4.40;;;;;;;;;;5070758;28;20033;-76
2023/06/01 02:37:39;;;;;;;6.68;4.20;;;;;;;;;;5070602;28;20522;-76
2023/06/01 02:40:10;;;;;;;11.57;4.20;;;;;;;;;;5070557;28;20016;-76
2023/06/01 02:42:36;;;;;;;10.93;4.20;;;;;;;;;;5070793;28;20024;-76
2023/06/01 02:45:04;;;;;;;9.73;4.55;;;;;;;;;;5070231;28;20028;-76
2023/06/01 02:47:29;;;;;;;7.72;4.50;;;;;;;;;;5069703;28;20120;-76
2023/06/01 02:49:54;;;;;;;8.32;4.40;;;;;;;;;;5070584;28;20112;-76
2023/06/01 02:52:20;;;;;;;9.80;4.43;;;;;;;;;;5070428;28;20032;-76
2023/06/01 02:54:45;;;;;;;10.25;4.30;;;;;;;;;;5070298;28;20033;-76
2023/06/01 02:57:11;;;;;;;9.23;4.30;;;;;;;;;;5069289;28;20021;-76
2023/06/01 02:59:36;;;;;;;6.10;3.63;;;;;;;;;;5070174;28;20036;-76
2023/06/01 03:02:02;;;;;;;8.93;3.80;;;;;;;;;;5070645;28;20025;-76
2023/06/01 03:04:28;;;;;;;6.68;3.83;;;;;;;;;;5068894;28;20020;-77
2023/06/01 03:06:54;;;;;;;6.68;3.75;;;;;;;;;;5069941;28;20028;-76
2023/06/01 03:09:19;;;;;;;6.93;3.72;;;;;;;;;;5070355;28;20539;-76
2023/06/01 03:11:45;;;;;;;5.72;3.83;;;;;;;;;;5070359;28;20019;-77
2023/06/01 03:14:10;;;;;;;8.68;4.25;;;;;;;;;;5069901;28;20020;-76
2023/06/01 03:16:36;;;;;;;6.80;3.72;;;;;;;;;;5069934;28;20058;-76
2023/06/01 03:19:01;;;;;;;8.85;3.95;;;;;;;;;;5068876;28;20029;-76
2023/06/01 03:21:27;;;;;;;5.93;3.30;;;;;;;;;;5069657;28;20468;-76
2023/06/01 03:23:52;;;;;;;8.63;3.90;;;;;;;;;;5069976;28;20040;-76
2023/06/01 03:26:20;;;;;;;5.60;3.58;;;;;;;;;;5069916;28;20029;-76
2023/06/01 03:28:46;;;;;;;9.35;3.58;;;;;;;;;;5070206;28;20082;-77
2023/06/01 03:31:12;;;;;;;6.22;3.50;;;;;;;;;;5069664;28;20033;-76
2023/06/01 03:33:38;;;;;;;7.47;3.60;;;;;;;;;;5069586;28;20035;-76
2023/06/01 03:36:04;;;;;;;6.30;3.80;;;;;;;;;;5069556;28;20477;-76
2023/06/01 03:38:30;;;;;;;5.65;3.70;;;;;;;;;;5069140;28;20101;-76
2023/06/01 03:40:56;;;;;;;7.05;3.97;;;;;;;;;;5069370;28;20438;-76
2023/06/01 03:43:21;;;;;;;7.32;3.80;;;;;;;;;;5069716;28;20025;-76
2023/06/01 03:45:49;;;;;;;7.43;3.80;;;;;;;;;;5069547;28;20594;-77
2023/06/01 03:48:15;;;;;;;7.80;3.70;;;;;;;;;;5069568;28;20063;-77
2023/06/01 03:50:41;;;;;;;6.97;3.97;;;;;;;;;;5069372;28;20052;-76
2023/06/01 03:53:06;;;;;;;7.63;3.90;;;;;;;;;;5069026;28;20032;-77
2023/06/01 03:55:32;;;;;;;7.22;3.70;;;;;;;;;;5068385;28;20036;-76
2023/06/01 03:57:58;;;;;;;7.93;3.50;;;;;;;;;;5069353;28;20025;-76
2023/06/01 04:00:24;;;;;;;9.30;3.85;;;;;;;;;;5069318;28;20040;-76
2023/06/01 04:02:57;;;;;;;6.88;3.67;;;;;;;;;;5069552;28;20028;-76
2023/06/01 04:05:25;;;;;;;6.95;3.70;;;;;;;;;;5068899;28;20025;-77
2023/06/01 04:07:52;;;;;;;7.30;3.53;;;;;;;;;;5069076;28;20027;-77
2023/06/01 04:10:17;;;;;;;6.22;3.80;;;;;;;;;;5068932;28;20033;-76
2023/06/01 04:12:44;;;;;;;5.85;3.67;;;;;;;;;;5069157;28;20035;-77
2023/06/01 04:15:11;;;;;;;8.13;3.80;;;;;;;;;;5068802;28;20430;-76
2023/06/01 04:17:38;;;;;;;6.10;3.85;;;;;;;;;;5069177;28;20055;-76
2023/06/01 04:20:09;;;;;;;8.95;3.63;;;;;;;;;;5069177;28;20025;-76
2023/06/01 04:22:35;;;;;;;8.18;4.05;;;;;;;;;;5068740;28;20025;-77
2023/06/01 04:25:00;;;;;;;5.53;3.90;;;;;;;;;;5068839;28;20027;-76
2023/06/01 04:27:26;;;;;;;6.38;3.63;;;;;;;;;;5068692;28;20033;-76
2023/06/01 04:29:53;;;;;;;7.43;3.78;;;;;;;;;;5068880;28;20037;-76
2023/06/01 04:32:21;;;;;;;9.52;3.58;;;;;;;;;;5068820;28;20503;-76
2023/06/01 04:34:50;;;;;;;7.07;3.53;;;;;;;;;;5068735;28;20054;-76
2023/06/01 04:37:19;;;;;;;9.10;4.15;;;;;;;;;;5068736;28;20114;-76
2023/06/01 04:39:48;;;;;;;7.97;3.80;;;;;;;;;;5068957;28;20443;-76
2023/06/01 04:42:16;;;;;;;7.07;3.80;;;;;;;;;;5068677;28;20028;-76
2023/06/01 04:44:49;;;;;;;8.32;3.75;;;;;;;;;;5068799;28;20024;-76
2023/06/01 04:47:16;;;;;;;7.60;4.00;;;;;;;;;;5068396;28;20031;-76
2023/06/01 04:49:42;;;;;;;9.93;3.85;;;;;;;;;;5068843;28;20105;-76
2023/06/01 04:52:09;;;;;;;7.10;3.97;;;;;;;;;;5068212;28;20039;-76
2023/06/01 04:54:36;;;;;;;8.30;3.85;;;;;;;;;;5067306;28;20478;-76
2023/06/01 04:57:01;;;;;;;7.95;3.85;;;;;;;;;;5068606;28;20396;-77
2023/06/01 04:59:27;;;;;;;11.82;4.32;;;;;;;;;;5068972;28;20492;-76
2023/06/01 05:01:52;;;;;;;7.43;4.10;;;;;;;;;;5068493;28;20044;-76
2023/06/01 05:04:18;;;;;;;9.95;4.20;;;;;;;;;;5068511;28;20032;-76
2023/06/01 05:06:43;;;;;;;9.02;3.97;;;;;;;;;;5069477;28;20027;-76
2023/06/01 05:09:08;;;;;;;7.88;4.20;;;;;;;;;;5073098;28;20074;-76
2023/06/01 05:11:34;;;;;;;8.25;3.83;;;;;;;;;;5059824;28;20040;-76
2023/06/01 05:14:02;;;;;;;8.02;4.25;;;;;;;;;;5052639;28;20036;-76
2023/06/01 05:16:28;;;;;;;7.05;4.10;;;;;;;;;;5052250;28;20025;-77
2023/06/01 05:18:55;;;;;;;7.30;4.40;;;;;;;;;;5052567;28;20033;-76
2023/06/01 05:21:20;;;;;;;8.63;4.63;;;;;;;;;;5052001;28;20617;-76
2023/06/01 05:23:45;;;;;;;6.25;4.10;;;;;;;;;;5052366;28;20029;-77
2023/06/01 05:26:11;;;;;;;8.07;4.40;;;;;;;;;;5051858;28;20032;-76
2023/06/01 05:28:36;;;;;;;7.57;4.32;;;;;;;;;;5052227;28;20459;-76
2023/06/01 05:31:02;;;;;;;6.85;4.00;;;;;;;;;;5052137;28;20041;-76
2023/06/01 05:33:28;;;;;;;10.32;4.63;;;;;;;;;;5052378;28;20057;-76
2023/06/01 05:35:53;;;;;;;9.23;4.22;;;;;;;;;;5051958;28;20052;-76
2023/06/01 05:38:19;;;;;;;7.80;4.25;;;;;;;;;;5051438;28;20079;-76
2023/06/01 05:40:45;;;;;;;7.00;4.22;;;;;;;;;;5052052;28;20052;-76
2023/06/01 05:43:10;;;;;;;7.60;4.05;;;;;;;;;;5051704;28;20029;-76
2023/06/01 05:45:36;;;;;;;9.07;4.68;;;;;;;;;;5051705;28;20040;-76
2023/06/01 05:48:02;;;;;;;6.85;4.18;;;;;;;;;;5051681;28;20029;-76
2023/06/01 05:50:27;;;;;;;7.85;4.05;;;;;;;;;;5052128;28;20428;-77
2023/06/01 05:52:53;;;;;;;8.20;4.65;;;;;;;;;;5051437;28;20040;-76
2023/06/01 05:55:19;;;;;;;5.90;3.92;;;;;;;;;;5051572;28;20493;-76
2023/06/01 05:57:45;;;;;;;8.70;4.35;;;;;;;;;;5051423;28;20439;-76
2023/06/01 06:00:13;;;;;;;10.13;4.55;;;;;;;;;;5051559;28;20086;-76
2023/06/01 06:02:39;;;;;;;7.40;4.22;;;;;;;;;;5066722;28;20029;-76
2023/06/01 06:05:05;;;;;;;10.98;4.82;;;;;;;;;;5051593;28;20088;-76
2023/06/01 06:07:31;;;;;;;9.93;4.57;;;;;;;;;;5051008;28;20040;-76
2023/06/01 06:09:57;;;;;;;8.50;4.47;;;;;;;;;;5051589;28;20025;-76
2023/06/01 06:12:22;;;;;;;8.75;5.10;;;;;;;;;;5051358;28;20044;-76
2023/06/01 06:14:48;;;;;;;8.57;4.40;;;;;;;;;;5051429;28;20060;-76
2023/06/01 06:17:15;;;;;;;8.30;4.57;;;;;;;;;;5051125;28;20477;-76
2023/06/01 06:19:43;;;;;;;8.52;5.00;;;;;;;;;;5050543;28;20021;-76
2023/06/01 06:22:09;;;;;;;6.95;4.32;;;;;;;;;;5050815;28;20025;-77
2023/06/01 06:24:34;;;;;;;6.85;4.38;;;;;;;;;;5051387;28;20036;-76
2023/06/01 06:27:00;;;;;;;9.70;4.15;;;;;;;;;;5050889;28;20027;-76
2023/06/01 06:29:25;;;;;;;6.53;4.47;;;;;;;;;;5051337;28;20094;-77
2023/06/01 06:31:51;;;;;;;7.90;4.32;;;;;;;;;;5050884;28;20086;-76
2023/06/01 06:34:16;;;;;;;7.72;4.60;;;;;;;;;;5051078;28;20025;-76
2023/06/01 06:36:41;;;;;;;8.82;5.18;;;;;;;;;;5050541;28;20025;-76
2023/06/01 06:39:07;;;;;;;8.45;5.13;;;;;;;;;;5050734;28;20045;-75
2023/06/01 06:41:32;;;;;;;9.27;4.65;;;;;;;;;;5050700;28;20106;-76
2023/06/01 06:43:58;;;;;;;6.97;4.43;;;;;;;;;;5066329;28;20040;-75
2023/06/01 06:46:23;;;;;;;8.60;4.35;;;;;;;;;;5050838;28;20058;-75
2023/06/01 06:48:49;;;;;;;10.15;4.47;;;;;;;;;;5050824;28;20029;-76
2023/06/01 06:51:14;;;;;;;11.48;4.80;;;;;;;;;;5050412;28;20023;-75
2023/06/01 06:53:40;;;;;;;9.75;4.70;;;;;;;;;;5050609;28;20032;-75
2023/06/01 06:56:05;;;;;;;8.90;4.45;;;;;;;;;;5050399;28;20033;-75
2023/06/01 06:58:31;;;;;;;9.77;4.43;;;;;;;;;;5050320;28;20029;-75
2023/06/01 07:00:56;;;;;;;8.95;4.32;;;;;;;;;;5050568;28;20021;-75
2023/06/01 07:03:22;;;;;;;9.30;4.50;;;;;;;;;;5050488;28;20021;-75
2023/06/01 07:05:47;;;;;;;9.18;4.68;;;;;;;;;;5049079;28;20457;-75
2023/06/01 07:08:13;;;;;;;8.05;4.00;;;;;;;;;;5049970;28;20493;-75
2023/06/01 07:10:39;;;;;;;8.30;4.30;;;;;;;;;;5050401;28;20021;-75
2023/06/01 07:13:04;;;;;;;9.30;4.43;;;;;;;;;;5050119;28;20071;-75
2023/06/01 07:15:30;;;;;;;9.10;4.35;;;;;;;;;;5049948;28;20033;-75
2023/06/01 07:17:55;;;;;;;8.70;4.80;;;;;;;;;;5049937;28;20392;-75
2023/06/01 07:20:21;;;;;;;6.72;4.15;;;;;;;;;;5050380;28;20044;-75
2023/06/01 07:22:47;;;;;;;8.38;4.10;;;;;;;;;;5049588;28;20472;-75
2023/06/01 07:25:13;;;;;;;10.20;4.50;;;;;;;;;;5050147;28;20025;-75
2023/06/01 07:27:43;;;;;;;10.52;4.40;;;;;;;;;;5049666;28;20528;-75
2023/06/01 07:30:09;;;;;;;9.00;4.57;;;;;;;;;;5049018;28;20538;-75
2023/06/01 07:32:35;;;;;;;7.88;4.40;;;;;;;;;;5064923;28;20055;-75
2023/06/01 07:35:01;;;;;;;9.25;4.85;;;;;;;;;;5049855;28;20465;-75
2023/06/01 07:37:27;;;;;;;11.95;4.65;;;;;;;;;;5049238;28;20028;-75
2023/06/01 07:39:55;;;;;;;10.02;4.43;;;;;;;;;;5049657;28;20060;-76
2023/06/01 07:42:21;;;;;;;11.32;4.65;;;;;;;;;;5049615;28;20029;-75
2023/06/01 07:44:46;;;;;;;9.65;4.10;;;;;;;;;;5049884;28;20082;-75
2023/06/01 07:47:11;;;;;;;9.35;4.57;;;;;;;;;;5049389;28;20075;-75
2023/06/01 07:49:37;;;;;;;8.27;3.67;;;;;;;;;;5048062;28;20033;-75
2023/06/01 07:52:04;;;;;;;10.27;4.13;;;;;;;;;;5049192;28;20025;-75
2023/06/01 07:54:30;;;;;;;10.65;4.07;;;;;;;;;;5049222;28;20602;-75
2023/06/01 07:56:56;;;;;;;8.93;4.00;;;;;;;;;;5049195;28;20676;-75
2023/06/01 07:59:23;;;;;;;7.75;3.88;;;;;;;;;;5049438;28;20025;-75
2023/06/01 08:01:50;;;;;;;8.25;3.92;;;;;;;;;;5049438;28;20025;-75
2023/06/01 08:04:16;;;;;;;8.15;4.03;;;;;;;;;;5049221;28;20039;-75
2023/06/01 08:06:43;;;;;;;9.50;4.35;;;;;;;;;;5048789;28;20017;-75
2023/06/01 08:09:10;;;;;;;12.02;4.32;;;;;;;;;;5048919;28;20036;-75
2023/06/01 08:11:35;;;;;;;9.23;4.28;;;;;;;;;;5049333;28;20080;-75
2023/06/01 08:14:02;;;;;;;9.88;4.35;;;;;;;;;;5048888;28;20824;-75
2023/06/01 08:16:28;;;;;;;10.02;3.97;;;;;;;;;;5064565;28;20084;-75
2023/06/01 08:18:56;;;;;;;10.00;4.20;;;;;;;;;;5049096;28;20025;-75
2023/06/01 08:21:24;;;;;;;8.57;4.18;;;;;;;;;;5047577;28;20075;-75
2023/06/01 08:23:51;;;;;;;9.52;4.50;;;;;;;;;;5048924;28;20037;-75
2023/06/01 08:26:18;;;;;;;7.40;4.07;;;;;;;;;;5048831;28;20029;-75
2023/06/01 08:28:51;;;;;;;8.57;4.00;;;;;;;;;;5048818;28;20033;-75
2023/06/01 08:31:20;;;;;;;8.30;4.13;;;;;;;;;;5048860;28;20025;-75
2023/06/01 08:33:46;;;;;;;10.35;4.18;;;;;;;;;;5048626;28;20029;-75
2023/06/01 08:36:11;;;;;;;7.38;3.95;;;;;;;;;;5048607;28;20036;-75
2023/06/01 08:38:37;;;;;;;8.38;3.88;;;;;;;;;;5048555;28;20087;-75
2023/06/01 08:41:19;;;;;;;8.02;3.90;;;;;;;;;;5048727;28;20056;-75
2023/06/01 08:43:55;;;;;;;7.15;4.10;;;;;;;;;;5048504;28;20044;-75
2023/06/01 08:46:22;;;;;;;9.23;4.30;;;;;;;;;;5048656;28;20452;-76
2023/06/01 08:48:52;;;;;;;6.93;3.65;;;;;;;;;;5048343;28;20021;-75
2023/06/01 08:51:18;;;;;;;6.63;4.00;;;;;;;;;;5048579;28;20035;-75
2023/06/01 08:53:46;;;;;;;8.73;3.90;;;;;;;;;;5048546;28;20653;-75
2023/06/01 08:56:11;;;;;;;8.10;3.70;;;;;;;;;;5048759;28;20060;-74
2023/06/01 08:58:37;;;;;;;8.05;4.05;;;;;;;;;;5048425;28;20053;-74
2023/06/01 09:01:02;;;;;;;8.93;3.70;;;;;;;;;;5048640;28;20032;-74
2023/06/01 09:03:28;;;;;;;7.28;3.97;;;;;;;;;;5048479;28;20036;-74
2023/06/01 09:05:53;;;;;;;9.98;4.00;;;;;;;;;;5048506;28;20143;-74
2023/06/01 09:08:18;;;;;;;9.00;4.22;;;;;;;;;;5047785;28;20071;-74
2023/06/01 09:10:44;;;;;;;6.13;3.67;;;;;;;;;;5048505;28;20028;-74
2023/06/01 09:13:09;;;;;;;6.38;3.80;;;;;;;;;;5048560;28;20066;-74
2023/06/01 09:15:35;;;;;;;8.82;3.85;;;;;;;;;;5048466;28;20402;-74
2023/06/01 09:18:10;;;;;;;9.52;3.50;;;;;;;;;;5048291;28;20125;-74
2023/06/01 09:20:37;;;;;;;9.20;3.67;;;;;;;;;;5048402;28;20021;-74
2023/06/01 09:23:02;;;;;;;8.68;3.70;;;;;;;;;;5048184;28;20025;-74
2023/06/01 09:25:33;;;;;;;7.53;3.83;;;;;;;;;;5048133;28;20036;-74
2023/06/01 09:28:00;;;;;;;;;;;;;;;;;;5048751;28;20028;-74
2023/06/01 09:30:40;;;;;;;9.88;3.65;;;;;;;;;;5048222;28;19925;-74
2023/06/01 09:33:10;;;;;;;8.02;3.47;;;;;;;;;;5048326;28;20036;-75
2023/06/01 09:35:48;;;;;;;7.60;3.33;;;;;;;;;;5048180;28;20082;-74
2023/06/01 09:38:22;;;;;;;5.10;3.17;;;;;;;;;;5047725;28;20072;-74
2023/06/01 09:40:57;;;;;;;6.65;3.47;;;;;;;;;;5048110;28;20025;-74
2023/06/01 09:43:22;;;;;;;5.40;3.13;;;;;;;;;;5048166;28;20021;-74
2023/06/01 09:46:07;;;;;;;7.45;3.97;;;;;;;;;;5048152;28;20059;-74
2023/06/01 09:48:33;;;;;;;7.40;3.40;;;;;;;;;;5048124;28;20071;-74
2023/06/01 09:50:59;;;;;;;6.80;3.25;;;;;;;;;;5048188;28;20024;-74
2023/06/01 09:53:26;;;;;;;5.47;3.65;;;;;;;;;;5048241;28;20079;-74
2023/06/01 09:56:01;;;;;;;11.18;4.07;;;;;;;;;;5051560;28;20041;-74
2023/06/01 09:58:27;;;;;;;7.95;3.45;;;;;;;;;;5066774;28;20032;-74
2023/06/01 10:00:54;;;;;;;7.13;3.50;;;;;;;;;;5051441;28;20025;-74
2023/06/01 10:03:21;;;;;;;6.63;4.05;;;;;;;;;;5051607;28;20063;-74
2023/06/01 10:05:48;;;;;;;6.63;3.70;;;;;;;;;;5051532;28;20132;-74
2023/06/01 10:08:17;;;;;;;5.53;3.75;;;;;;;;;;5051176;28;20112;-75
2023/06/01 10:10:45;;;;;;;7.57;3.50;;;;;;;;;;5051707;28;20029;-77
2023/06/01 10:13:12;;;;;;;6.20;3.33;;;;;;;;;;5051767;28;20495;-74
2023/06/01 10:15:37;;;;;;;7.13;3.38;;;;;;;;;;5051213;28;20067;-75
2023/06/01 10:18:04;;;;;;;6.30;3.58;;;;;;;;;;5051098;28;20021;-75
2023/06/01 10:20:35;;;;;;;8.27;3.58;;;;;;;;;;5050955;28;20009;-74
2023/06/01 10:23:00;;;;;;;;;;;;;;;;;;5051536;28;20171;-74
2023/06/01 10:25:30;;;;;;;5.95;3.42;;;;;;;;;;5051150;28;20524;-77
2023/06/01 10:28:00;;;;;;;9.00;3.55;;;;;;;;;;5051241;28;20032;-74
2023/06/01 10:30:26;;;;;;;;;;;;;;;;;;5051634;28;20104;-74
2023/06/01 10:32:54;;;;;;;5.18;3.47;;;;;;;;;;5050887;28;20003;-74
2023/06/01 10:35:28;;;;;;;6.20;3.47;;;;;;;;;;5050833;28;20032;-76
2023/06/01 10:38:16;;;;;;;7.18;3.75;;;;;;;;;;5050219;28;20112;-74
2023/06/01 10:40:43;;;;;;;6.45;3.45;;;;;;;;;;5050700;28;20051;-74
2023/06/01 10:43:39;;;;;;;10.98;3.72;;;;;;;;;;5050827;28;20062;-74
2023/06/01 10:46:29;;;;;;;7.22;4.05;;;;;;;;;;5050657;28;20116;-74
2023/06/01 10:48:57;;;;;;;7.32;3.50;;;;;;;;;;5050823;28;20035;-74
2023/06/01 10:51:27;;;;;;;5.95;3.72;;;;;;;;;;5050349;28;20044;-74
2023/06/01 10:53:53;;;;;;;;;;;;;;;;;;5051144;28;20025;-74
2023/06/01 10:56:25;;;;;;;5.22;3.33;;;;;;;;;;5050289;28;19916;-74
2023/06/01 10:59:07;;;;;;;6.40;3.75;;;;;;;;;;5050272;28;20033;-76
2023/06/01 11:01:33;;;;;;;8.93;3.70;;;;;;;;;;5065951;28;20025;-77
2023/06/01 11:03:59;;;;;;;6.85;3.72;;;;;;;;;;5050511;28;20484;-74
2023/06/01 11:06:33;;;;;;;5.82;3.45;;;;;;;;;;5049887;28;20079;-74
2023/06/01 11:09:00;;;;;;;7.35;3.63;;;;;;;;;;5050266;28;20496;-74
2023/06/01 11:11:57;;;;;;;6.32;3.67;;;;;;;;;;5050376;28;20042;-74
2023/06/01 11:14:24;;;;;;;6.35;3.42;;;;;;;;;;5050277;28;20032;-74
2023/06/01 11:16:51;;;;;;;5.88;3.45;;;;;;;;;;5049937;28;20098;-74
2023/06/01 11:19:24;;;;;;;5.15;3.30;;;;;;;;;;5050310;28;20536;-76
2023/06/01 11:22:03;;;;;;;6.15;3.85;;;;;;;;;;5049659;28;20033;-76
2023/06/01 11:24:34;;;;;;;7.70;3.80;;;;;;;;;;5050384;28;20025;-76
2023/06/01 11:27:06;;;;;;;6.63;3.75;;;;;;;;;;5049974;28;20477;-76
2023/06/01 11:29:32;;;;;;;6.43;3.53;;;;;;;;;;5050025;28;20025;-74
2023/06/01 11:32:00;;;;;;;7.75;3.85;;;;;;;;;;5049686;28;20025;-74
2023/06/01 11:34:32;;;;;;;6.18;3.85;;;;;;;;;;5049804;28;20063;-74
2023/06/01 11:36:58;;;;;;;6.35;3.92;;;;;;;;;;5049366;28;20449;-73
2023/06/01 11:39:25;;;;;;;5.30;3.75;;;;;;;;;;5049467;28;20045;-74
2023/06/01 11:41:53;;;;;;;4.75;3.38;;;;;;;;;;5049582;28;20021;-74
2023/06/01 11:44:18;;;;;;;5.90;3.90;;;;;;;;;;5049726;28;20021;-74
2023/06/01 11:46:56;;;;;;;5.63;3.50;;;;;;;;;;5049706;28;20021;-76
2023/06/01 11:49:22;;;;;;;6.38;3.65;;;;;;;;;;5049429;28;20021;-74
2023/06/01 11:51:48;;;;;;;5.85;3.60;;;;;;;;;;5048787;28;20024;-74
2023/06/01 11:54:13;;;;;;;7.50;3.80;;;;;;;;;;5049431;28;20151;-74
2023/06/01 11:56:39;;;;;;;7.18;3.70;;;;;;;;;;5049276;28;20040;-76
2023/06/01 11:59:08;;;;;;;7.68;3.83;;;;;;;;;;5049375;28;20036;-76
2023/06/01 12:01:36;;;;;;;5.38;3.33;;;;;;;;;;5049322;28;20051;-74
2023/06/01 12:04:02;;;;;;;5.70;3.78;;;;;;;;;;5049309;28;20025;-74
2023/06/01 12:06:28;;;;;;;5.60;3.78;;;;;;;;;;5048802;28;20064;-74
2023/06/01 12:08:55;;;;;;;9.75;3.70;;;;;;;;;;5048051;28;20059;-74
2023/06/01 12:11:28;;;;;;;5.68;3.47;;;;;;;;;;5049100;28;20083;-74
2023/06/01 12:13:55;;;;;;;5.65;3.83;;;;;;;;;;5049414;28;20476;-74
2023/06/01 12:16:25;;;;;;;7.05;3.90;;;;;;;;;;5048674;28;20103;-74
2023/06/01 12:18:51;;;;;;;6.13;3.80;;;;;;;;;;5049038;28;20510;-74
2023/06/01 12:21:17;;;;;;;8.65;4.03;;;;;;;;;;5048488;28;20033;-74
2023/06/01 12:23:51;;;;;;;9.23;3.58;;;;;;;;;;5049500;28;20523;-74
2023/06/01 12:26:17;;;;;;;8.45;3.97;;;;;;;;;;5048670;28;20021;-74
2023/06/01 12:28:54;;;;;;;5.50;3.47;;;;;;;;;;5048788;28;20078;-74
2023/06/01 12:31:20;;;;;;;6.22;3.80;;;;;;;;;;5048727;28;20028;-75
2023/06/01 12:33:48;;;;;;;5.05;3.63;;;;;;;;;;5048679;28;20040;-74
2023/06/01 12:36:34;;;;;;;8.02;3.80;;;;;;;;;;5048390;28;20108;-75
2023/06/01 12:39:01;;;;;;;6.35;3.42;;;;;;;;;;5048566;28;20056;-74
2023/06/01 12:41:27;;;;;;;5.78;3.80;;;;;;;;;;5048731;28;20485;-74
2023/06/01 12:43:53;;;;;;;6.53;3.53;;;;;;;;;;5048832;28;20125;-73
2023/06/01 12:46:22;;;;;;;6.45;3.53;;;;;;;;;;5048401;28;20082;-74
2023/06/01 12:48:48;;;;;;;6.43;3.97;;;;;;;;;;5048390;28;20037;-74
2023/06/01 12:51:14;;;;;;;6.50;3.92;;;;;;;;;;5047041;28;20025;-76
2023/06/01 12:53:42;;;;;;;5.63;3.47;;;;;;;;;;5048808;28;20021;-75
2023/06/01 12:56:08;;;;;;;6.88;3.83;;;;;;;;;;5048566;28;20021;-77
2023/06/01 12:58:33;;;;;;;8.35;3.85;;;;;;;;;;5048576;28;20534;-75
2023/06/01 13:00:59;;;;;;;6.57;3.80;;;;;;;;;;5048311;28;20021;-74
2023/06/01 13:03:24;;;;;;;6.45;3.85;;;;;;;;;;5048549;28;20091;-74
2023/06/01 13:05:51;;;;;;;7.38;3.80;;;;;;;;;;5048207;28;20033;-74
2023/06/01 13:08:17;;;;;;;8.85;4.05;;;;;;;;;;5048028;28;20031;-74
2023/06/01 13:10:43;;;;;;;7.50;4.10;;;;;;;;;;5048508;28;20509;-74
2023/06/01 13:13:10;;;;;;;6.20;3.53;;;;;;;;;;5063999;28;20036;-73
2023/06/01 13:15:42;;;;;;;6.32;4.03;;;;;;;;;;5048566;28;20116;-74
2023/06/01 13:18:08;;;;;;;7.43;3.80;;;;;;;;;;5048069;28;20021;-74
2023/06/01 13:20:34;;;;;;;7.75;3.70;;;;;;;;;;5048297;28;20032;-74
2023/06/01 13:23:00;;;;;;;5.63;3.25;;;;;;;;;;5047832;28;20025;-74
2023/06/01 13:25:25;;;;;;;6.97;3.67;;;;;;;;;;5048409;28;20020;-75
2023/06/01 13:27:51;;;;;;;7.45;3.63;;;;;;;;;;5048069;28;20036;-74
2023/06/01 13:30:17;;;;;;;6.35;3.70;;;;;;;;;;5051869;28;20047;-74
2023/06/01 13:32:43;;;;;;;7.65;4.00;;;;;;;;;;5052095;28;20167;-74
2023/06/01 13:35:11;;;;;;;5.32;3.90;;;;;;;;;;5052049;28;20063;-74
2023/06/01 13:37:39;;;;;;;5.78;3.47;;;;;;;;;;5051696;28;20028;-74
2023/06/01 13:40:05;;;;;;;6.47;3.75;;;;;;;;;;5051942;28;20021;-74
2023/06/01 13:42:32;;;;;;;8.55;3.80;;;;;;;;;;5051523;28;20443;-74
2023/06/01 13:44:58;;;;;;;6.57;3.40;;;;;;;;;;5051969;28;20052;-75
2023/06/01 13:47:23;;;;;;;5.45;3.58;;;;;;;;;;5051898;28;20503;-74
2023/06/01 13:49:49;;;;;;;5.70;3.60;;;;;;;;;;5051836;28;20128;-74
2023/06/01 13:52:15;;;;;;;6.43;3.28;;;;;;;;;;5051544;28;20032;-75
2023/06/01 13:54:40;;;;;;;4.50;3.28;;;;;;;;;;5052027;28;20094;-74
2023/06/01 13:57:07;;;;;;;6.30;3.72;;;;;;;;;;5051343;28;20036;-74
2023/06/01 13:59:35;;;;;;;6.35;3.55;;;;;;;;;;5051367;28;20025;-74
2023/06/01 14:02:01;;;;;;;6.25;3.42;;;;;;;;;;5051255;28;20033;-74
2023/06/01 14:04:27;;;;;;;7.68;3.95;;;;;;;;;;5051665;28;20400;-74
2023/06/01 14:06:52;;;;;;;8.55;3.65;;;;;;;;;;5066480;28;20500;-74
2023/06/01 14:09:18;;;;;;;8.65;3.85;;;;;;;;;;5051447;28;20037;-74
2023/06/01 14:11:44;;;;;;;7.32;3.70;;;;;;;;;;5051515;28;20029;-74
2023/06/01 14:14:10;;;;;;;7.40;3.75;;;;;;;;;;5051352;28;20031;-74
2023/06/01 14:16:36;;;;;;;7.20;3.67;;;;;;;;;;5051397;28;20412;-74
2023/06/01 14:19:03;;;;;;;5.30;3.50;;;;;;;;;;5051212;28;20477;-74
2023/06/01 14:21:30;;;;;;;5.07;3.55;;;;;;;;;;5050558;28;20071;-74
2023/06/01 14:23:55;;;;;;;6.47;3.42;;;;;;;;;;5051151;28;20024;-74
2023/06/01 14:26:21;;;;;;;5.25;3.47;;;;;;;;;;5051391;28;20583;-74
2023/06/01 14:28:46;;;;;;;10.07;3.40;;;;;;;;;;5050791;28;20039;-74
2023/06/01 14:31:12;;;;;;;5.90;3.47;;;;;;;;;;5050966;28;20032;-74
2023/06/01 14:33:38;;;;;;;6.38;3.17;;;;;;;;;;5050619;28;20017;-74
2023/06/01 14:36:04;;;;;;;4.97;3.22;;;;;;;;;;5050995;28;20098;-74
2023/06/01 14:38:30;;;;;;;7.03;3.67;;;;;;;;;;5049999;28;20119;-74
2023/06/01 14:40:55;;;;;;;6.53;3.30;;;;;;;;;;5050104;28;20495;-74
2023/06/01 14:43:21;;;;;;;5.70;3.28;;;;;;;;;;5050822;28;20027;-74
2023/06/01 14:45:46;;;;;;;8.25;3.13;;;;;;;;;;5050896;28;20094;-74